sensor_id;sensor_type;location;lat;lon;timestamp;P1;durP1;ratioP1;P2;durP2;ratioP2
22660;SDS011;11497;52.222;21.246;2024-01-11T00:00:43;121.15;;;46.75;;
22660;SDS011;11497;52.222;21.246;2024-01-11T00:03:31;134.25;;;50.72;;
22660;SDS011;11497;52.222;21.246;2024-01-11T00:06:00;120.97;;;48.13;;
22660;SDS011;11497;52.222;21.246;2024-01-11T00:08:28;132.27;;;52.55;;
22660;SDS011;11497;52.222;21.246;2024-01-11T00:10:56;125.32;;;50.90;;
22660;SDS011;11497;52.222;21.246;2024-01-11T00:13:25;135.93;;;51.15;;
22660;SDS011;11497;52.222;21.246;2024-01-11T00:15:53;131.25;;;51.53;;
22660;SDS011;11497;52.222;21.246;2024-01-11T00:18:21;141.63;;;54.83;;
22660;SDS011;11497;52.222;21.246;2024-01-11T00:20:48;148.98;;;57.15;;
22660;SDS011;11497;52.222;21.246;2024-01-11T00:23:17;139.65;;;53.97;;
22660;SDS011;11497;52.222;21.246;2024-01-11T00:25:44;145.38;;;57.60;;
22660;SDS011;11497;52.222;21.246;2024-01-11T00:28:12;138.38;;;57.08;;
22660;SDS011;11497;52.222;21.246;2024-01-11T00:30:40;141.25;;;56.97;;
22660;SDS011;11497;52.222;21.246;2024-01-11T00:33:08;159.90;;;60.90;;
22660;SDS011;11497;52.222;21.246;2024-01-11T00:35:36;150.15;;;59.95;;
22660;SDS011;11497;52.222;21.246;2024-01-11T00:38:05;152.63;;;58.13;;
22660;SDS011;11497;52.222;21.246;2024-01-11T00:40:32;151.57;;;59.53;;
22660;SDS011;11497;52.222;21.246;2024-01-11T00:43:00;136.98;;;56.78;;
22660;SDS011;11497;52.222;21.246;2024-01-11T00:45:28;152.07;;;60.80;;
22660;SDS011;11497;52.222;21.246;2024-01-11T00:47:56;144.15;;;54.90;;
22660;SDS011;11497;52.222;21.246;2024-01-11T00:50:24;134.23;;;55.38;;
22660;SDS011;11497;52.222;21.246;2024-01-11T00:52:52;143.23;;;57.95;;
22660;SDS011;11497;52.222;21.246;2024-01-11T00:55:20;143.70;;;57.53;;
22660;SDS011;11497;52.222;21.246;2024-01-11T00:57:48;138.45;;;56.13;;
22660;SDS011;11497;52.222;21.246;2024-01-11T01:00:16;142.60;;;56.97;;
22660;SDS011;11497;52.222;21.246;2024-01-11T01:02:44;138.75;;;54.63;;
22660;SDS011;11497;52.222;21.246;2024-01-11T01:05:12;136.02;;;53.38;;
22660;SDS011;11497;52.222;21.246;2024-01-11T01:07:40;132.50;;;55.33;;
22660;SDS011;11497;52.222;21.246;2024-01-11T01:10:08;132.20;;;52.35;;
22660;SDS011;11497;52.222;21.246;2024-01-11T01:12:36;134.05;;;55.35;;
22660;SDS011;11497;52.222;21.246;2024-01-11T01:15:04;131.30;;;54.47;;
22660;SDS011;11497;52.222;21.246;2024-01-11T01:17:33;134.13;;;53.95;;
22660;SDS011;11497;52.222;21.246;2024-01-11T01:20:01;132.70;;;53.33;;
22660;SDS011;11497;52.222;21.246;2024-01-11T01:22:30;124.78;;;50.75;;
22660;SDS011;11497;52.222;21.246;2024-01-11T01:24:57;124.50;;;51.95;;
22660;SDS011;11497;52.222;21.246;2024-01-11T01:27:27;125.25;;;52.38;;
22660;SDS011;11497;52.222;21.246;2024-01-11T01:29:55;128.30;;;49.22;;
22660;SDS011;11497;52.222;21.246;2024-01-11T01:32:23;120.07;;;49.25;;
22660;SDS011;11497;52.222;21.246;2024-01-11T01:34:51;118.88;;;47.33;;
22660;SDS011;11497;52.222;21.246;2024-01-11T01:37:19;119.32;;;46.70;;
22660;SDS011;11497;52.222;21.246;2024-01-11T01:39:47;103.80;;;42.58;;
22660;SDS011;11497;52.222;21.246;2024-01-11T01:42:14;110.25;;;44.40;;
22660;SDS011;11497;52.222;21.246;2024-01-11T01:44:42;114.57;;;44.67;;
22660;SDS011;11497;52.222;21.246;2024-01-11T01:47:10;106.03;;;43.00;;
22660;SDS011;11497;52.222;21.246;2024-01-11T01:49:39;107.47;;;40.38;;
22660;SDS011;11497;52.222;21.246;2024-01-11T01:52:07;108.07;;;43.83;;
22660;SDS011;11497;52.222;21.246;2024-01-11T01:54:35;103.65;;;40.83;;
22660;SDS011;11497;52.222;21.246;2024-01-11T01:57:03;91.63;;;38.38;;
22660;SDS011;11497;52.222;21.246;2024-01-11T01:59:34;96.78;;;39.45;;
22660;SDS011;11497;52.222;21.246;2024-01-11T02:02:05;92.22;;;38.65;;
22660;SDS011;11497;52.222;21.246;2024-01-11T02:04:33;96.28;;;39.25;;
22660;SDS011;11497;52.222;21.246;2024-01-11T02:07:02;104.43;;;38.40;;
22660;SDS011;11497;52.222;21.246;2024-01-11T02:09:31;96.40;;;38.80;;
22660;SDS011;11497;52.222;21.246;2024-01-11T02:12:00;96.90;;;39.17;;
22660;SDS011;11497;52.222;21.246;2024-01-11T02:14:29;96.97;;;38.08;;
22660;SDS011;11497;52.222;21.246;2024-01-11T02:16:57;97.43;;;37.58;;
22660;SDS011;11497;52.222;21.246;2024-01-11T02:19:25;97.35;;;39.00;;
22660;SDS011;11497;52.222;21.246;2024-01-11T02:21:53;93.65;;;36.90;;
22660;SDS011;11497;52.222;21.246;2024-01-11T02:24:26;93.03;;;35.90;;
22660;SDS011;11497;52.222;21.246;2024-01-11T02:27:00;97.65;;;37.70;;
22660;SDS011;11497;52.222;21.246;2024-01-11T02:29:30;101.32;;;42.05;;
22660;SDS011;11497;52.222;21.246;2024-01-11T02:31:59;95.50;;;35.95;;
22660;SDS011;11497;52.222;21.246;2024-01-11T02:34:29;93.28;;;36.70;;
22660;SDS011;11497;52.222;21.246;2024-01-11T02:36:58;94.97;;;40.90;;
22660;SDS011;11497;52.222;21.246;2024-01-11T02:39:26;94.47;;;38.13;;
22660;SDS011;11497;52.222;21.246;2024-01-11T02:41:56;103.43;;;36.75;;
22660;SDS011;11497;52.222;21.246;2024-01-11T02:44:24;83.32;;;33.40;;
22660;SDS011;11497;52.222;21.246;2024-01-11T02:46:52;97.53;;;35.15;;
22660;SDS011;11497;52.222;21.246;2024-01-11T02:49:21;95.40;;;37.05;;
22660;SDS011;11497;52.222;21.246;2024-01-11T02:51:49;97.20;;;38.40;;
22660;SDS011;11497;52.222;21.246;2024-01-11T02:54:17;99.57;;;36.75;;
22660;SDS011;11497;52.222;21.246;2024-01-11T02:56:45;94.07;;;36.33;;
22660;SDS011;11497;52.222;21.246;2024-01-11T02:59:13;105.20;;;38.15;;
22660;SDS011;11497;52.222;21.246;2024-01-11T03:01:41;106.38;;;36.78;;
22660;SDS011;11497;52.222;21.246;2024-01-11T03:04:09;97.53;;;37.65;;
22660;SDS011;11497;52.222;21.246;2024-01-11T03:06:37;104.28;;;39.15;;
22660;SDS011;11497;52.222;21.246;2024-01-11T03:09:05;101.65;;;38.05;;
22660;SDS011;11497;52.222;21.246;2024-01-11T03:11:33;104.25;;;37.47;;
22660;SDS011;11497;52.222;21.246;2024-01-11T03:14:01;109.93;;;38.50;;
22660;SDS011;11497;52.222;21.246;2024-01-11T03:16:29;101.88;;;38.58;;
22660;SDS011;11497;52.222;21.246;2024-01-11T03:18:57;100.93;;;37.85;;
22660;SDS011;11497;52.222;21.246;2024-01-11T03:21:26;112.40;;;38.72;;
22660;SDS011;11497;52.222;21.246;2024-01-11T03:23:53;102.50;;;37.22;;
22660;SDS011;11497;52.222;21.246;2024-01-11T03:26:21;111.28;;;36.20;;
22660;SDS011;11497;52.222;21.246;2024-01-11T03:28:49;102.47;;;37.20;;
22660;SDS011;11497;52.222;21.246;2024-01-11T03:31:17;117.70;;;38.65;;
22660;SDS011;11497;52.222;21.246;2024-01-11T03:33:45;106.32;;;37.45;;
22660;SDS011;11497;52.222;21.246;2024-01-11T03:36:13;103.65;;;37.00;;
22660;SDS011;11497;52.222;21.246;2024-01-11T03:38:41;107.75;;;37.83;;
22660;SDS011;11497;52.222;21.246;2024-01-11T03:41:09;102.47;;;35.47;;
22660;SDS011;11497;52.222;21.246;2024-01-11T03:43:37;110.70;;;37.72;;
22660;SDS011;11497;52.222;21.246;2024-01-11T03:46:06;110.85;;;36.17;;
22660;SDS011;11497;52.222;21.246;2024-01-11T03:48:33;116.60;;;38.42;;
22660;SDS011;11497;52.222;21.246;2024-01-11T03:51:04;108.40;;;41.25;;
22660;SDS011;11497;52.222;21.246;2024-01-11T03:53:36;98.13;;;32.83;;
22660;SDS011;11497;52.222;21.246;2024-01-11T03:56:05;117.63;;;39.80;;
22660;SDS011;11497;52.222;21.246;2024-01-11T03:58:33;91.50;;;34.42;;
22660;SDS011;11497;52.222;21.246;2024-01-11T04:01:06;106.30;;;34.78;;
22660;SDS011;11497;52.222;21.246;2024-01-11T04:03:37;101.60;;;34.53;;
22660;SDS011;11497;52.222;21.246;2024-01-11T04:06:05;98.82;;;34.15;;
22660;SDS011;11497;52.222;21.246;2024-01-11T04:08:33;95.50;;;32.60;;
22660;SDS011;11497;52.222;21.246;2024-01-11T04:11:02;90.30;;;33.45;;
22660;SDS011;11497;52.222;21.246;2024-01-11T04:13:33;99.00;;;35.53;;
22660;SDS011;11497;52.222;21.246;2024-01-11T04:16:03;103.22;;;34.88;;
22660;SDS011;11497;52.222;21.246;2024-01-11T04:18:32;98.32;;;34.88;;
22660;SDS011;11497;52.222;21.246;2024-01-11T04:21:00;96.35;;;32.97;;
22660;SDS011;11497;52.222;21.246;2024-01-11T04:23:28;93.32;;;34.03;;
22660;SDS011;11497;52.222;21.246;2024-01-11T04:25:57;99.40;;;32.78;;
22660;SDS011;11497;52.222;21.246;2024-01-11T04:28:24;93.97;;;34.08;;
22660;SDS011;11497;52.222;21.246;2024-01-11T04:30:52;101.40;;;35.67;;
22660;SDS011;11497;52.222;21.246;2024-01-11T04:33:20;94.20;;;34.20;;
22660;SDS011;11497;52.222;21.246;2024-01-11T04:35:48;100.95;;;34.20;;
22660;SDS011;11497;52.222;21.246;2024-01-11T04:38:16;100.68;;;36.70;;
22660;SDS011;11497;52.222;21.246;2024-01-11T04:40:44;102.28;;;35.45;;
22660;SDS011;11497;52.222;21.246;2024-01-11T04:43:12;98.32;;;34.10;;
22660;SDS011;11497;52.222;21.246;2024-01-11T04:45:40;98.88;;;32.80;;
22660;SDS011;11497;52.222;21.246;2024-01-11T04:48:08;88.57;;;32.85;;
22660;SDS011;11497;52.222;21.246;2024-01-11T04:50:36;98.15;;;34.70;;
22660;SDS011;11497;52.222;21.246;2024-01-11T04:53:04;89.07;;;33.60;;
22660;SDS011;11497;52.222;21.246;2024-01-11T04:55:32;98.95;;;35.80;;
22660;SDS011;11497;52.222;21.246;2024-01-11T04:58:00;99.88;;;35.70;;
22660;SDS011;11497;52.222;21.246;2024-01-11T05:00:28;100.25;;;37.00;;
22660;SDS011;11497;52.222;21.246;2024-01-11T05:02:55;99.32;;;35.03;;
22660;SDS011;11497;52.222;21.246;2024-01-11T05:05:23;98.82;;;36.40;;
22660;SDS011;11497;52.222;21.246;2024-01-11T05:07:52;90.68;;;32.50;;
22660;SDS011;11497;52.222;21.246;2024-01-11T05:10:20;100.35;;;35.72;;
22660;SDS011;11497;52.222;21.246;2024-01-11T05:12:48;110.97;;;37.47;;
22660;SDS011;11497;52.222;21.246;2024-01-11T05:15:16;100.32;;;34.85;;
22660;SDS011;11497;52.222;21.246;2024-01-11T05:17:43;88.70;;;31.52;;
22660;SDS011;11497;52.222;21.246;2024-01-11T05:20:12;98.13;;;31.90;;
22660;SDS011;11497;52.222;21.246;2024-01-11T05:22:39;95.43;;;34.28;;
22660;SDS011;11497;52.222;21.246;2024-01-11T05:25:07;89.68;;;32.40;;
22660;SDS011;11497;52.222;21.246;2024-01-11T05:27:35;88.05;;;33.05;;
22660;SDS011;11497;52.222;21.246;2024-01-11T05:30:03;85.97;;;34.03;;
22660;SDS011;11497;52.222;21.246;2024-01-11T05:32:32;95.30;;;33.42;;
22660;SDS011;11497;52.222;21.246;2024-01-11T05:35:00;101.47;;;35.10;;
22660;SDS011;11497;52.222;21.246;2024-01-11T05:37:28;94.03;;;34.55;;
22660;SDS011;11497;52.222;21.246;2024-01-11T05:39:56;101.03;;;37.67;;
22660;SDS011;11497;52.222;21.246;2024-01-11T05:42:24;95.20;;;37.25;;
22660;SDS011;11497;52.222;21.246;2024-01-11T05:44:52;107.47;;;38.08;;
22660;SDS011;11497;52.222;21.246;2024-01-11T05:47:20;99.78;;;36.20;;
22660;SDS011;11497;52.222;21.246;2024-01-11T05:49:48;97.22;;;34.45;;
22660;SDS011;11497;52.222;21.246;2024-01-11T05:52:16;90.88;;;32.78;;
22660;SDS011;11497;52.222;21.246;2024-01-11T05:54:44;88.13;;;32.90;;
22660;SDS011;11497;52.222;21.246;2024-01-11T05:57:12;82.78;;;33.30;;
22660;SDS011;11497;52.222;21.246;2024-01-11T05:59:43;92.15;;;32.45;;
22660;SDS011;11497;52.222;21.246;2024-01-11T06:02:12;80.32;;;32.63;;
22660;SDS011;11497;52.222;21.246;2024-01-11T06:04:40;82.00;;;32.78;;
22660;SDS011;11497;52.222;21.246;2024-01-11T06:07:08;82.78;;;30.65;;
22660;SDS011;11497;52.222;21.246;2024-01-11T06:09:37;76.13;;;29.30;;
22660;SDS011;11497;52.222;21.246;2024-01-11T06:12:05;78.55;;;29.27;;
22660;SDS011;11497;52.222;21.246;2024-01-11T06:14:33;80.20;;;30.15;;
22660;SDS011;11497;52.222;21.246;2024-01-11T06:17:01;72.13;;;28.45;;
22660;SDS011;11497;52.222;21.246;2024-01-11T06:19:29;72.63;;;29.35;;
22660;SDS011;11497;52.222;21.246;2024-01-11T06:21:57;74.72;;;29.55;;
22660;SDS011;11497;52.222;21.246;2024-01-11T06:24:25;76.97;;;30.27;;
22660;SDS011;11497;52.222;21.246;2024-01-11T06:26:53;76.88;;;30.23;;
22660;SDS011;11497;52.222;21.246;2024-01-11T06:29:21;82.35;;;29.20;;
22660;SDS011;11497;52.222;21.246;2024-01-11T06:31:48;70.80;;;29.17;;
22660;SDS011;11497;52.222;21.246;2024-01-11T06:34:16;63.45;;;28.17;;
22660;SDS011;11497;52.222;21.246;2024-01-11T06:36:44;74.72;;;27.77;;
22660;SDS011;11497;52.222;21.246;2024-01-11T06:39:12;71.82;;;29.55;;
22660;SDS011;11497;52.222;21.246;2024-01-11T06:41:40;72.80;;;26.80;;
22660;SDS011;11497;52.222;21.246;2024-01-11T06:44:08;75.68;;;28.33;;
22660;SDS011;11497;52.222;21.246;2024-01-11T06:46:36;74.50;;;28.40;;
22660;SDS011;11497;52.222;21.246;2024-01-11T06:49:07;79.15;;;30.33;;
22660;SDS011;11497;52.222;21.246;2024-01-11T06:51:35;78.80;;;32.33;;
22660;SDS011;11497;52.222;21.246;2024-01-11T06:54:03;82.25;;;32.25;;
22660;SDS011;11497;52.222;21.246;2024-01-11T06:56:31;66.55;;;26.98;;
22660;SDS011;11497;52.222;21.246;2024-01-11T06:58:59;70.07;;;26.27;;
22660;SDS011;11497;52.222;21.246;2024-01-11T07:01:28;64.25;;;24.90;;
22660;SDS011;11497;52.222;21.246;2024-01-11T07:03:56;69.90;;;27.52;;
22660;SDS011;11497;52.222;21.246;2024-01-11T07:06:24;70.32;;;26.77;;
22660;SDS011;11497;52.222;21.246;2024-01-11T07:08:52;69.60;;;28.08;;
22660;SDS011;11497;52.222;21.246;2024-01-11T07:11:20;66.40;;;27.35;;
22660;SDS011;11497;52.222;21.246;2024-01-11T07:13:48;74.75;;;28.95;;
22660;SDS011;11497;52.222;21.246;2024-01-11T07:16:16;72.75;;;27.80;;
22660;SDS011;11497;52.222;21.246;2024-01-11T07:18:44;65.60;;;27.85;;
22660;SDS011;11497;52.222;21.246;2024-01-11T07:21:12;60.08;;;25.40;;
22660;SDS011;11497;52.222;21.246;2024-01-11T07:23:40;58.03;;;24.23;;
22660;SDS011;11497;52.222;21.246;2024-01-11T07:26:07;59.92;;;24.80;;
22660;SDS011;11497;52.222;21.246;2024-01-11T07:28:35;63.50;;;24.92;;
22660;SDS011;11497;52.222;21.246;2024-01-11T07:31:03;67.97;;;24.45;;
22660;SDS011;11497;52.222;21.246;2024-01-11T07:33:31;60.10;;;23.73;;
22660;SDS011;11497;52.222;21.246;2024-01-11T07:36:00;66.10;;;25.15;;
22660;SDS011;11497;52.222;21.246;2024-01-11T07:38:28;62.13;;;25.17;;
22660;SDS011;11497;52.222;21.246;2024-01-11T07:40:56;61.83;;;23.88;;
22660;SDS011;11497;52.222;21.246;2024-01-11T07:43:24;67.57;;;23.30;;
22660;SDS011;11497;52.222;21.246;2024-01-11T07:46:03;60.45;;;24.60;;
22660;SDS011;11497;52.222;21.246;2024-01-11T07:48:32;60.75;;;23.83;;
22660;SDS011;11497;52.222;21.246;2024-01-11T07:51:00;64.25;;;24.25;;
22660;SDS011;11497;52.222;21.246;2024-01-11T07:53:29;65.38;;;24.13;;
22660;SDS011;11497;52.222;21.246;2024-01-11T07:55:58;67.68;;;23.77;;
22660;SDS011;11497;52.222;21.246;2024-01-11T07:58:26;61.92;;;22.95;;
22660;SDS011;11497;52.222;21.246;2024-01-11T08:00:54;71.00;;;25.95;;
22660;SDS011;11497;52.222;21.246;2024-01-11T08:03:22;75.18;;;26.35;;
22660;SDS011;11497;52.222;21.246;2024-01-11T08:05:50;71.47;;;25.33;;
22660;SDS011;11497;52.222;21.246;2024-01-11T08:08:18;64.65;;;25.23;;
22660;SDS011;11497;52.222;21.246;2024-01-11T08:10:46;66.53;;;24.38;;
22660;SDS011;11497;52.222;21.246;2024-01-11T08:13:14;69.40;;;24.73;;
22660;SDS011;11497;52.222;21.246;2024-01-11T08:15:41;70.15;;;25.05;;
22660;SDS011;11497;52.222;21.246;2024-01-11T08:18:09;67.43;;;23.60;;
22660;SDS011;11497;52.222;21.246;2024-01-11T08:20:38;66.18;;;23.63;;
22660;SDS011;11497;52.222;21.246;2024-01-11T08:23:06;67.85;;;25.00;;
22660;SDS011;11497;52.222;21.246;2024-01-11T08:25:34;68.82;;;25.50;;
22660;SDS011;11497;52.222;21.246;2024-01-11T08:28:02;66.68;;;21.75;;
22660;SDS011;11497;52.222;21.246;2024-01-11T08:30:30;66.82;;;24.35;;
22660;SDS011;11497;52.222;21.246;2024-01-11T08:32:58;67.40;;;24.42;;
22660;SDS011;11497;52.222;21.246;2024-01-11T08:35:26;74.32;;;25.67;;
22660;SDS011;11497;52.222;21.246;2024-01-11T08:37:54;75.32;;;25.95;;
22660;SDS011;11497;52.222;21.246;2024-01-11T08:40:22;82.43;;;29.42;;
22660;SDS011;11497;52.222;21.246;2024-01-11T08:42:50;73.65;;;25.52;;
22660;SDS011;11497;52.222;21.246;2024-01-11T08:45:18;128.45;;;41.72;;
22660;SDS011;11497;52.222;21.246;2024-01-11T08:47:47;95.00;;;31.83;;
22660;SDS011;11497;52.222;21.246;2024-01-11T08:50:15;117.60;;;35.88;;
22660;SDS011;11497;52.222;21.246;2024-01-11T08:52:49;132.23;;;37.80;;
22660;SDS011;11497;52.222;21.246;2024-01-11T08:55:17;94.45;;;31.88;;
22660;SDS011;11497;52.222;21.246;2024-01-11T08:57:45;121.18;;;36.67;;
22660;SDS011;11497;52.222;21.246;2024-01-11T09:00:13;98.95;;;31.15;;
22660;SDS011;11497;52.222;21.246;2024-01-11T09:02:45;101.97;;;31.95;;
22660;SDS011;11497;52.222;21.246;2024-01-11T09:05:14;111.18;;;35.25;;
22660;SDS011;11497;52.222;21.246;2024-01-11T09:07:42;94.63;;;28.50;;
22660;SDS011;11497;52.222;21.246;2024-01-11T09:10:10;84.43;;;26.73;;
22660;SDS011;11497;52.222;21.246;2024-01-11T09:12:39;94.82;;;28.63;;
22660;SDS011;11497;52.222;21.246;2024-01-11T09:15:07;96.88;;;31.73;;
22660;SDS011;11497;52.222;21.246;2024-01-11T09:17:36;74.68;;;24.25;;
22660;SDS011;11497;52.222;21.246;2024-01-11T09:20:05;113.70;;;33.05;;
22660;SDS011;11497;52.222;21.246;2024-01-11T09:22:34;93.35;;;28.48;;
22660;SDS011;11497;52.222;21.246;2024-01-11T09:25:01;91.18;;;29.63;;
22660;SDS011;11497;52.222;21.246;2024-01-11T09:27:30;69.03;;;25.10;;
22660;SDS011;11497;52.222;21.246;2024-01-11T09:29:57;80.80;;;26.42;;
22660;SDS011;11497;52.222;21.246;2024-01-11T09:32:25;57.20;;;22.38;;
22660;SDS011;11497;52.222;21.246;2024-01-11T09:34:53;81.18;;;28.58;;
22660;SDS011;11497;52.222;21.246;2024-01-11T09:37:22;63.03;;;23.42;;
22660;SDS011;11497;52.222;21.246;2024-01-11T09:39:50;59.00;;;21.50;;
22660;SDS011;11497;52.222;21.246;2024-01-11T09:42:18;51.00;;;19.70;;
22660;SDS011;11497;52.222;21.246;2024-01-11T09:44:46;52.90;;;20.17;;
22660;SDS011;11497;52.222;21.246;2024-01-11T09:47:15;57.97;;;21.35;;
22660;SDS011;11497;52.222;21.246;2024-01-11T09:49:44;47.53;;;20.60;;
22660;SDS011;11497;52.222;21.246;2024-01-11T09:52:15;47.75;;;18.95;;
22660;SDS011;11497;52.222;21.246;2024-01-11T09:54:43;52.10;;;19.48;;
22660;SDS011;11497;52.222;21.246;2024-01-11T09:57:12;41.15;;;17.65;;
22660;SDS011;11497;52.222;21.246;2024-01-11T09:59:43;43.58;;;20.02;;
22660;SDS011;11497;52.222;21.246;2024-01-11T10:02:11;42.90;;;18.38;;
22660;SDS011;11497;52.222;21.246;2024-01-11T10:04:41;48.72;;;19.55;;
22660;SDS011;11497;52.222;21.246;2024-01-11T10:07:10;43.72;;;20.75;;
22660;SDS011;11497;52.222;21.246;2024-01-11T10:09:39;41.55;;;17.52;;
22660;SDS011;11497;52.222;21.246;2024-01-11T10:12:07;43.55;;;18.33;;
22660;SDS011;11497;52.222;21.246;2024-01-11T10:14:35;37.15;;;17.25;;
22660;SDS011;11497;52.222;21.246;2024-01-11T10:17:04;39.63;;;18.48;;
22660;SDS011;11497;52.222;21.246;2024-01-11T10:19:32;51.05;;;22.23;;
22660;SDS011;11497;52.222;21.246;2024-01-11T10:22:01;72.45;;;25.70;;
22660;SDS011;11497;52.222;21.246;2024-01-11T10:24:29;80.95;;;28.17;;
22660;SDS011;11497;52.222;21.246;2024-01-11T10:26:57;78.97;;;27.02;;
22660;SDS011;11497;52.222;21.246;2024-01-11T10:29:30;75.32;;;26.08;;
22660;SDS011;11497;52.222;21.246;2024-01-11T10:31:58;75.10;;;27.17;;
22660;SDS011;11497;52.222;21.246;2024-01-11T10:34:26;59.42;;;22.13;;
22660;SDS011;11497;52.222;21.246;2024-01-11T10:36:54;71.20;;;25.67;;
22660;SDS011;11497;52.222;21.246;2024-01-11T10:39:24;68.90;;;24.33;;
22660;SDS011;11497;52.222;21.246;2024-01-11T10:42:02;89.30;;;30.27;;
22660;SDS011;11497;52.222;21.246;2024-01-11T10:44:34;79.95;;;29.88;;
22660;SDS011;11497;52.222;21.246;2024-01-11T10:47:03;91.07;;;31.67;;
22660;SDS011;11497;52.222;21.246;2024-01-11T10:49:36;82.10;;;30.88;;
22660;SDS011;11497;52.222;21.246;2024-01-11T10:52:08;90.05;;;32.67;;
22660;SDS011;11497;52.222;21.246;2024-01-11T10:54:39;76.05;;;27.05;;
22660;SDS011;11497;52.222;21.246;2024-01-11T10:57:08;77.60;;;28.45;;
22660;SDS011;11497;52.222;21.246;2024-01-11T10:59:38;99.40;;;34.80;;
22660;SDS011;11497;52.222;21.246;2024-01-11T11:02:10;74.25;;;29.00;;
22660;SDS011;11497;52.222;21.246;2024-01-11T11:04:40;86.90;;;33.00;;
22660;SDS011;11497;52.222;21.246;2024-01-11T11:07:08;79.20;;;28.20;;
22660;SDS011;11497;52.222;21.246;2024-01-11T11:09:38;84.75;;;30.08;;
22660;SDS011;11497;52.222;21.246;2024-01-11T11:12:11;77.77;;;26.33;;
22660;SDS011;11497;52.222;21.246;2024-01-11T11:14:39;93.70;;;33.30;;
22660;SDS011;11497;52.222;21.246;2024-01-11T11:17:08;75.35;;;26.75;;
22660;SDS011;11497;52.222;21.246;2024-01-11T11:19:36;73.00;;;27.83;;
22660;SDS011;11497;52.222;21.246;2024-01-11T11:22:04;70.93;;;28.67;;
22660;SDS011;11497;52.222;21.246;2024-01-11T11:24:36;72.32;;;27.48;;
22660;SDS011;11497;52.222;21.246;2024-01-11T11:27:05;73.18;;;27.55;;
22660;SDS011;11497;52.222;21.246;2024-01-11T11:29:32;68.07;;;26.50;;
22660;SDS011;11497;52.222;21.246;2024-01-11T11:32:01;73.32;;;26.83;;
22660;SDS011;11497;52.222;21.246;2024-01-11T11:34:43;77.40;;;27.10;;
22660;SDS011;11497;52.222;21.246;2024-01-11T11:37:12;84.13;;;28.08;;
22660;SDS011;11497;52.222;21.246;2024-01-11T11:39:50;82.50;;;28.85;;
22660;SDS011;11497;52.222;21.246;2024-01-11T11:42:24;75.15;;;26.63;;
22660;SDS011;11497;52.222;21.246;2024-01-11T11:44:52;73.78;;;25.88;;
22660;SDS011;11497;52.222;21.246;2024-01-11T11:47:21;74.05;;;26.40;;
22660;SDS011;11497;52.222;21.246;2024-01-11T11:49:57;74.57;;;26.33;;
22660;SDS011;11497;52.222;21.246;2024-01-11T11:52:27;72.65;;;26.77;;
22660;SDS011;11497;52.222;21.246;2024-01-11T11:54:55;74.75;;;26.98;;
22660;SDS011;11497;52.222;21.246;2024-01-11T11:57:24;76.88;;;27.77;;
22660;SDS011;11497;52.222;21.246;2024-01-11T11:59:55;99.50;;;36.42;;
22660;SDS011;11497;52.222;21.246;2024-01-11T12:02:25;119.60;;;43.92;;
22660;SDS011;11497;52.222;21.246;2024-01-11T12:04:54;86.05;;;30.20;;
22660;SDS011;11497;52.222;21.246;2024-01-11T12:07:22;84.57;;;27.58;;
22660;SDS011;11497;52.222;21.246;2024-01-11T12:09:51;72.13;;;27.90;;
22660;SDS011;11497;52.222;21.246;2024-01-11T12:12:19;83.03;;;28.85;;
22660;SDS011;11497;52.222;21.246;2024-01-11T12:14:47;66.43;;;25.00;;
22660;SDS011;11497;52.222;21.246;2024-01-11T12:17:16;68.55;;;26.60;;
22660;SDS011;11497;52.222;21.246;2024-01-11T12:19:44;68.57;;;26.42;;
22660;SDS011;11497;52.222;21.246;2024-01-11T12:22:12;69.95;;;26.63;;
22660;SDS011;11497;52.222;21.246;2024-01-11T12:24:40;77.90;;;28.90;;
22660;SDS011;11497;52.222;21.246;2024-01-11T12:27:09;69.40;;;25.00;;
22660;SDS011;11497;52.222;21.246;2024-01-11T12:29:38;65.80;;;22.67;;
22660;SDS011;11497;52.222;21.246;2024-01-11T12:32:22;76.28;;;26.25;;
22660;SDS011;11497;52.222;21.246;2024-01-11T12:34:50;63.70;;;23.63;;
22660;SDS011;11497;52.222;21.246;2024-01-11T12:37:18;63.10;;;25.08;;
22660;SDS011;11497;52.222;21.246;2024-01-11T12:39:48;68.22;;;25.35;;
22660;SDS011;11497;52.222;21.246;2024-01-11T12:42:16;66.88;;;25.70;;
22660;SDS011;11497;52.222;21.246;2024-01-11T12:44:44;71.93;;;28.20;;
22660;SDS011;11497;52.222;21.246;2024-01-11T12:47:19;64.70;;;24.58;;
22660;SDS011;11497;52.222;21.246;2024-01-11T12:49:47;71.40;;;26.67;;
22660;SDS011;11497;52.222;21.246;2024-01-11T12:52:19;83.95;;;29.75;;
22660;SDS011;11497;52.222;21.246;2024-01-11T12:54:47;70.00;;;25.40;;
22660;SDS011;11497;52.222;21.246;2024-01-11T12:57:20;79.60;;;28.23;;
22660;SDS011;11497;52.222;21.246;2024-01-11T12:59:48;87.15;;;28.75;;
22660;SDS011;11497;52.222;21.246;2024-01-11T13:02:16;77.00;;;27.58;;
22660;SDS011;11497;52.222;21.246;2024-01-11T13:04:46;72.72;;;26.70;;
22660;SDS011;11497;52.222;21.246;2024-01-11T13:07:17;78.65;;;28.02;;
22660;SDS011;11497;52.222;21.246;2024-01-11T13:09:45;64.25;;;25.80;;
22660;SDS011;11497;52.222;21.246;2024-01-11T13:12:14;70.53;;;28.00;;
22660;SDS011;11497;52.222;21.246;2024-01-11T13:14:42;70.35;;;26.60;;
22660;SDS011;11497;52.222;21.246;2024-01-11T13:17:10;83.50;;;28.25;;
22660;SDS011;11497;52.222;21.246;2024-01-11T13:19:38;79.90;;;27.55;;
22660;SDS011;11497;52.222;21.246;2024-01-11T13:22:06;63.80;;;24.55;;
22660;SDS011;11497;52.222;21.246;2024-01-11T13:24:34;67.70;;;25.98;;
22660;SDS011;11497;52.222;21.246;2024-01-11T13:27:02;64.28;;;26.60;;
22660;SDS011;11497;52.222;21.246;2024-01-11T13:29:31;70.57;;;26.90;;
22660;SDS011;11497;52.222;21.246;2024-01-11T13:31:59;70.00;;;27.48;;
22660;SDS011;11497;52.222;21.246;2024-01-11T13:34:30;71.75;;;26.85;;
22660;SDS011;11497;52.222;21.246;2024-01-11T13:36:58;61.92;;;25.88;;
22660;SDS011;11497;52.222;21.246;2024-01-11T13:39:26;62.92;;;27.25;;
22660;SDS011;11497;52.222;21.246;2024-01-11T13:41:54;60.55;;;23.33;;
22660;SDS011;11497;52.222;21.246;2024-01-11T13:44:22;65.82;;;25.67;;
22660;SDS011;11497;52.222;21.246;2024-01-11T13:46:51;71.10;;;25.58;;
22660;SDS011;11497;52.222;21.246;2024-01-11T13:49:19;66.90;;;26.63;;
22660;SDS011;11497;52.222;21.246;2024-01-11T13:51:50;61.88;;;23.77;;
22660;SDS011;11497;52.222;21.246;2024-01-11T13:54:27;66.57;;;26.23;;
22660;SDS011;11497;52.222;21.246;2024-01-11T13:56:55;66.68;;;27.35;;
22660;SDS011;11497;52.222;21.246;2024-01-11T13:59:23;66.07;;;25.73;;
22660;SDS011;11497;52.222;21.246;2024-01-11T14:01:51;69.18;;;26.25;;
22660;SDS011;11497;52.222;21.246;2024-01-11T14:04:19;62.33;;;25.73;;
22660;SDS011;11497;52.222;21.246;2024-01-11T14:06:50;61.15;;;26.30;;
22660;SDS011;11497;52.222;21.246;2024-01-11T14:09:19;62.88;;;25.20;;
22660;SDS011;11497;52.222;21.246;2024-01-11T14:11:48;68.60;;;27.08;;
22660;SDS011;11497;52.222;21.246;2024-01-11T14:14:17;61.45;;;25.67;;